This is the latest recevied weather packets stored in our database for station/object BadBuchau. If no packets are shown the sender has not sent any weather packets the latest 10 day(s).
| Time | Temp. | Humidity | Pressure | Rain* | Wind** | Luminosity | Snow |
|---|---|---|---|---|---|---|---|
| 1777998731 | 16.67° C | 59% | 1005.8 hPa | 0 mm | - | - | - |
| 1777995130 | 16.11° C | 68% | 1005.9 hPa | 0 mm | - | - | - |
| 1777993336 | 16.11° C | 69% | 1006 hPa | 0 mm | - | - | - |
| 1777991532 | 15.56° C | 65% | 1005.7 hPa | 0 mm | - | - | - |
| 1777989730 | 15.56° C | 69% | 1006 hPa | 0 mm | - | - | - |
| 1777987930 | 15° C | 70% | 1006.2 hPa | 0 mm | - | - | - |
| 1777986130 | 15° C | 76% | 1006.1 hPa | 0 mm | - | - | - |
| 1777984330 | 15° C | 76% | 1006.5 hPa | 0 mm | - | - | - |
| 1777982530 | 15.56° C | 74% | 1006.6 hPa | 0 mm | - | - | - |
| 1777980730 | 16.11° C | 71% | 1006.8 hPa | 0 mm | - | - | - |
| 1777978931 | 16.11° C | 71% | 1006.5 hPa | 0 mm | - | - | - |
| 1777977131 | 15.56° C | 69% | 1006.4 hPa | 0 mm | - | - | - |
| 1777975332 | 15.56° C | 72% | 1006.6 hPa | 0 mm | - | - | - |
| 1777973532 | 15.56° C | 73% | 1006.8 hPa | 0 mm | - | - | - |
| 1777971732 | 15.56° C | 71% | 1006.9 hPa | 0 mm | - | - | - |
| 1777969931 | 15.56° C | 70% | 1006.9 hPa | 0 mm | - | - | - |
| 1777968130 | 15° C | 71% | 1007.1 hPa | 0 mm | - | - | - |
| 1777966330 | 15° C | 71% | 1007.2 hPa | 0 mm | - | - | - |
| 1777964531 | 12.78° C | 78% | 1007.4 hPa | 0 mm | - | - | - |
| 1777962731 | 12.78° C | 77% | 1007.6 hPa | 0 mm | - | - | - |
| 1777960932 | 9.44° C | 85% | 1007.7 hPa | 0 mm | - | - | - |
| 1777959131 | 7.78° C | 87% | 1007.6 hPa | 0 mm | - | - | - |
| 1777957331 | 7.22° C | 88% | 1007.6 hPa | 0 mm | - | - | - |
| 1777955531 | 7.22° C | 84% | 1007.8 hPa | 0 mm | - | - | - |
| 1777953731 | 7.78° C | 84% | 1007.7 hPa | 0 mm | - | - | - |
* Rain since midnight (hover to see other rain measurements)
** Current wind speed in m/s (hover to see current wind gust speed)